^^
 
Daily Summary for July 05, 2020 Units:  English    Metric   Both
Daily Weekly Monthly Yearly Custom
  Current: High: Low: Average:
Temperature: 97.7 °F 97.7 °F 64 °F 76.3 °F
Dew Point: 28.9 °F 42.8 °F 28.8 °F 37.4 °F
Humidity: 8.9% 39.3% 8.9% 27%
Wind Speed: 3.3mph 9.3mph 0mph 2.3mph
Wind Gust: 9mph 20mph - -
WindWSW - - SW
Pressure: 29.94 in 30.03 in 29.94 in -
Precipitation: 0.00 in      
Historical Graphs
 
 
Tabular Data for July 05, 2020
Time Temperature Dew Point Pressure Wind Wind Speed Wind Gust Humidity Rainfall Rate (Hourly) solar
00:04 67.2 °F 39.2 °F 30.01 in Calm     35.9% 0.00 in 0 W/m2
00:09 67 °F 39.3 °F 30.01 in Calm     36.3% 0.00 in 0 W/m2
00:14 66.8 °F 39.2 °F 30.01 in Calm     36.3% 0.00 in 0 W/m2
00:19 66.6 °F 39.4 °F 30.01 in Calm     36.8% 0.00 in 0 W/m2
00:24 66.5 °F 39.4 °F 30.01 in Calm     37% 0.00 in 0 W/m2
00:29 66.3 °F 39.1 °F 30.01 in NNW 0.5 mph 0.1 mph 36.9% 0.00 in 0 W/m2
00:34 66.1 °F 38.7 °F 30.00 in NNW 0.7 mph 2 mph 36.4% 0.00 in 0 W/m2
00:39 65.9 °F 38.9 °F 30.00 in Calm   2 mph 36.9% 0.00 in 0 W/m2
00:44 65.8 °F 38.7 °F 30.00 in Calm     36.9% 0.00 in 0 W/m2
00:49 65.7 °F 39.1 °F 30.00 in Calm     37.4% 0.00 in 0 W/m2
00:54 65.7 °F 39 °F 30.00 in Calm     37.4% 0.00 in 0 W/m2
00:59 65.6 °F 38.6 °F 30.00 in Calm     37% 0.00 in 0 W/m2
01:04 65.5 °F 39.1 °F 30.00 in Calm     37.9% 0.00 in 0 W/m2
01:09 65.4 °F 39.1 °F 30.00 in Calm     38% 0.00 in 0 W/m2
01:14 65.3 °F 39 °F 30.00 in Calm     38% 0.00 in 0 W/m2
01:19 65.2 °F 38.9 °F 30.00 in Calm     38% 0.00 in 0 W/m2
01:24 65.1 °F 38.8 °F 30.00 in Calm     38% 0.00 in 0 W/m2
01:29 65 °F 38.8 °F 30.00 in Calm     38% 0.00 in 0 W/m2
01:34 65 °F 38.8 °F 29.99 in Calm     38% 0.00 in 0 W/m2
01:39 65 °F 39 °F 29.99 in Calm     38.4% 0.00 in 0 W/m2
01:44 65 °F 39.1 °F 29.99 in Calm     38.6% 0.00 in 0 W/m2
01:49 64.9 °F 39.2 °F 29.99 in Calm     38.8% 0.00 in 0 W/m2
01:54 64.9 °F 39 °F 29.99 in Calm     38.5% 0.00 in 0 W/m2
01:59 64.8 °F 39.1 °F 29.99 in NNW 0.6 mph 2 mph 38.8% 0.00 in 0 W/m2
02:04 64.8 °F 38.6 °F 29.99 in Calm     38% 0.00 in 0 W/m2
02:09 64.7 °F 38.7 °F 29.98 in Calm     38.3% 0.00 in 0 W/m2
02:14 64.6 °F 38.5 °F 29.99 in North 1 mph 0.1 mph 38.1% 0.00 in 0 W/m2
02:19 64.5 °F 39 °F 29.99 in Calm   2 mph 39.1% 0.00 in 0 W/m2
02:24 64.4 °F 38.9 °F 29.99 in Calm     39% 0.00 in 0 W/m2
02:29 64.3 °F 38.4 °F 29.98 in NNE 0.8 mph 0.2 mph 38.5% 0.00 in 0 W/m2
02:34 64.2 °F 38 °F 29.98 in NE 1.2 mph 2 mph 38% 0.00 in 0 W/m2
02:39 64.1 °F 38 °F 29.98 in Calm   2 mph 38% 0.00 in 0 W/m2
02:44 64.1 °F 38.3 °F 29.98 in ENE 1 mph 0.2 mph 38.5% 0.00 in 0 W/m2
02:49 64 °F 38.7 °F 29.98 in ENE 0.3 mph 2 mph 39.3% 0.00 in 0 W/m2
02:53 64 °F 38.4 °F 29.98 in ENE 0.7 mph 0.1 mph 38.9% 0.00 in 0 W/m2
02:59 64 °F 38.3 °F 29.98 in ENE 0.3 mph 2 mph 38.7% 0.00 in 0 W/m2
03:04 64 °F 38.2 °F 29.98 in East 1.1 mph 0.3 mph 38.5% 0.00 in 0 W/m2
03:09 64.1 °F 38.2 °F 29.98 in East 0.7 mph 2 mph 38.4% 0.00 in 0 W/m2
03:14 64.1 °F 38.2 °F 29.98 in East 0.9 mph 2 mph 38.3% 0.00 in 0 W/m2
03:19 64.3 °F 38 °F 29.98 in SSE 0.6 mph 2 mph 37.9% 0.00 in 0 W/m2
03:24 64.4 °F 38.2 °F 29.98 in SSE 0.5 mph 2 mph 38% 0.00 in 0 W/m2
03:29 64.5 °F 38.1 °F 29.98 in South 1 mph 2 mph 37.7% 0.00 in 0 W/m2
03:34 64.5 °F 37.4 °F 29.98 in SSE 1.5 mph 2 mph 36.8% 0.00 in 0 W/m2
03:39 64.6 °F 37.4 °F 29.98 in SE 1.6 mph 3 mph 36.6% 0.00 in 0 W/m2
03:44 64.7 °F 37.7 °F 29.98 in SE 1.2 mph 6 mph 36.9% 0.00 in 0 W/m2
03:49 64.7 °F 37.6 °F 29.98 in SSE 1.1 mph 2 mph 36.7% 0.00 in 0 W/m2
03:54 64.7 °F 37.3 °F 29.98 in SSE 1.1 mph 2 mph 36.3% 0.00 in 0 W/m2
03:59 64.8 °F 37.2 °F 29.97 in SSE 1.6 mph 2 mph 36% 0.00 in 0 W/m2
04:04 64.9 °F 37 °F 29.97 in SSE 0.7 mph 2 mph 35.6% 0.00 in 0 W/m2
04:09 65 °F 36.8 °F 29.97 in SSE 1.1 mph 2 mph 35.3% 0.00 in 0 W/m2
04:14 65.1 °F 36.6 °F 29.97 in SSE 0.5 mph 2 mph 34.8% 0.00 in 0 W/m2
04:19 65.2 °F 36.4 °F 29.97 in SSW 1.4 mph 2.4 mph 34.5% 0.00 in 0 W/m2
04:24 65.2 °F 36.4 °F 29.98 in SSW 2 mph 7 mph 34.4% 0.00 in 0 W/m2
04:29 65.4 °F 36.6 °F 29.98 in SSW 0.9 mph 2 mph 34.5% 0.00 in 0 W/m2
04:34 65.4 °F 36 °F 29.97 in SSW 0.3 mph 2 mph 33.6% 0.00 in 0 W/m2
04:39 65.5 °F 35.9 °F 29.97 in SSW 0.3 mph 2 mph 33.4% 0.00 in 0 W/m2
04:44 65.5 °F 35.9 °F 29.97 in SSE 1.8 mph 1.7 mph 33.3% 0.00 in 0 W/m2
04:49 65.6 °F 35.7 °F 29.98 in South 1.7 mph 7 mph 33% 0.00 in 0 W/m2
04:54 65.6 °F 34.9 °F 29.97 in South 1.1 mph 2 mph 32% 0.00 in 0 W/m2
04:59 65.6 °F 34.8 °F 29.97 in South 0.9 mph 2 mph 31.9% 0.00 in 0 W/m2
05:04 65.6 °F 34.9 °F 29.98 in South 1.8 mph 2 mph 32% 0.00 in 0 W/m2
05:09 65.7 °F 34.8 °F 29.98 in SE 1.3 mph 6 mph 31.7% 0.00 in 0 W/m2
05:14 65.7 °F 34 °F 29.98 in SSE 0.9 mph 2 mph 30.7% 0.00 in 0 W/m2
05:19 65.8 °F 34.1 °F 29.98 in WSW 0.6 mph 2 mph 30.7% 0.00 in 0 W/m2
05:24 65.9 °F 33.8 °F 29.98 in SW 1.5 mph 2 mph 30.3% 0.00 in 0 W/m2
05:29 66 °F 34.1 °F 29.98 in SSE 1.6 mph 3 mph 30.6% 0.00 in 0 W/m2
05:34 66 °F 34.4 °F 29.98 in SE 0.5 mph 3 mph 30.9% 0.00 in 0 W/m2
05:39 66 °F 33.6 °F 29.98 in ESE 0.3 mph 2 mph 29.9% 0.00 in 0 W/m2
05:44 66 °F 33.9 °F 29.98 in SSE 0.8 mph 0.3 mph 30.2% 0.00 in 0 W/m2
05:49 66 °F 32.9 °F 29.98 in SSE 2.9 mph 2 mph 29.1% 0.00 in 0 W/m2
05:54 66 °F 32.3 °F 29.98 in SSE 0.3 mph 6 mph 28.4% 0.00 in 0 W/m2
05:59 66 °F 32.5 °F 29.98 in Calm     28.7% 0.00 in 5 W/m2
06:04 65.9 °F 32.4 °F 29.99 in Calm     28.7% 0.00 in 5 W/m2
06:09 65.9 °F 32.6 °F 29.99 in Calm     28.9% 0.00 in 7 W/m2
06:14 65.9 °F 32.4 °F 29.99 in South 0.9 mph 0.5 mph 28.7% 0.00 in 7 W/m2
06:19 65.9 °F 32.7 °F 29.99 in SSE 0.5 mph 2 mph 29% 0.00 in 7 W/m2
06:29 65.8 °F 33.3 °F 29.99 in SSW 0.8 mph 2 mph 29.9% 0.00 in 9 W/m2
06:34 65.8 °F 33.6 °F 29.99 in SSE 0.6 mph 2 mph 30.1% 0.00 in 11 W/m2
06:39 65.7 °F 33.1 °F 29.99 in SE 0.5 mph 2 mph 29.7% 0.00 in 11 W/m2
06:44 65.7 °F 34 °F 29.99 in Calm   2 mph 30.7% 0.00 in 12 W/m2
06:49 65.7 °F 33.2 °F 29.99 in SSE 2.5 mph 2 mph 29.8% 0.00 in 12 W/m2
06:54 65.7 °F 33.5 °F 29.99 in SSE 0.9 mph 3 mph 30.1% 0.00 in 14 W/m2
06:59 65.7 °F 33.6 °F 29.99 in SSE 0.3 mph 2 mph 30.3% 0.00 in 14 W/m2
07:04 65.7 °F 34 °F 30.00 in South 1.9 mph 3 mph 30.8% 0.00 in 14 W/m2
07:09 65.8 °F 33.7 °F 30.00 in SW 1.6 mph 2 mph 30.3% 0.00 in 16 W/m2
07:14 65.8 °F 34 °F 30.00 in WNW 0.9 mph 2 mph 30.5% 0.00 in 16 W/m2
07:19 65.9 °F 33.8 °F 30.00 in South 2 mph 2 mph 30.3% 0.00 in 18 W/m2
07:24 66 °F 34.7 °F 30.00 in Calm   3 mph 31.3% 0.00 in 18 W/m2
07:29 66.1 °F 36 °F 30.00 in South 0.6 mph 0.2 mph 32.9% 0.00 in 19 W/m2
07:34 66.1 °F 36.2 °F 30.00 in Calm   2 mph 33.1% 0.00 in 19 W/m2
07:39 66.2 °F 36.8 °F 30.00 in South 0.9 mph 0.2 mph 33.8% 0.00 in 21 W/m2
07:44 66.2 °F 37.1 °F 30.01 in Calm   2 mph 34.1% 0.00 in 21 W/m2
07:49 66.3 °F 37.8 °F 30.01 in Calm     35% 0.00 in 28 W/m2
07:54 66.4 °F 38.8 °F 30.01 in Calm     36.3% 0.00 in 26 W/m2
07:59 66.5 °F 40 °F 30.00 in Calm     37.9% 0.00 in 39 W/m2
08:04 66.6 °F 39.8 °F 30.02 in South 0.6 mph 0.3 mph 37.4% 0.00 in 236 W/m2
08:09 66.7 °F 39.8 °F 30.02 in Calm   2 mph 37.3% 0.00 in 179 W/m2
08:19 67.1 °F 40.5 °F 30.02 in South 0.6 mph 2 mph 37.9% 0.00 in 51 W/m2
08:24 67.5 °F 40 °F 30.03 in South 0.7 mph 0.1 mph 36.6% 0.00 in 104 W/m2
08:29 67.9 °F 39 °F 30.02 in Calm   2 mph 34.6% 0.00 in 281 W/m2
08:34 68.6 °F 39.5 °F 30.02 in South 1 mph 0.3 mph 34.6% 0.00 in 376 W/m2
08:39 69.2 °F 40.3 °F 30.02 in South 0.5 mph 2 mph 34.9% 0.00 in 376 W/m2
08:44 69.8 °F 40.5 °F 30.02 in SW 0.6 mph 2 mph 34.6% 0.00 in 371 W/m2
08:49 70.4 °F 40.2 °F 30.02 in SW 1.7 mph 2 mph 33.4% 0.00 in 552 W/m2
08:54 71 °F 40.6 °F 30.02 in SW 1.6 mph 2 mph 33.1% 0.00 in 566 W/m2
08:59 71.7 °F 41.6 °F 30.02 in WSW 0.9 mph 2 mph 33.8% 0.00 in 585 W/m2
09:04 72.3 °F 40.2 °F 30.02 in WSW 1.4 mph 2 mph 31.4% 0.00 in 598 W/m2
09:09 72.7 °F 41.2 °F 30.02 in WSW 1.5 mph 2 mph 32.1% 0.00 in 610 W/m2
09:14 73.1 °F 42.4 °F 30.02 in WSW 1.1 mph 2 mph 33.1% 0.00 in 628 W/m2
09:19 73.6 °F 42.3 °F 30.02 in Calm   2 mph 32.4% 0.00 in 640 W/m2
09:24 74.3 °F 41.9 °F 30.02 in NW 1.7 mph 2 mph 31.3% 0.00 in 652 W/m2
09:29 75 °F 42.6 °F 30.02 in NW 1 mph 2 mph 31.4% 0.00 in 666 W/m2
09:34 75.7 °F 42.6 °F 30.02 in WNW 2.7 mph 3 mph 30.7% 0.00 in 682 W/m2
09:39 76.4 °F 42.8 °F 30.02 in WNW 1.7 mph 3 mph 30.1% 0.00 in 694 W/m2
09:44 77.1 °F 42.1 °F 30.01 in West 2.8 mph 3 mph 28.8% 0.00 in 707 W/m2
09:49 77.6 °F 41.2 °F 30.01 in West 1.7 mph 3 mph 27.3% 0.00 in 719 W/m2
09:54 78.2 °F 42.2 °F 30.01 in West 1.9 mph 2 mph 27.8% 0.00 in 729 W/m2
09:59 78.8 °F 41.9 °F 30.01 in West 2.1 mph 2 mph 26.9% 0.00 in 742 W/m2
10:04 79.5 °F 41.4 °F 30.01 in NW 2.9 mph 3 mph 25.8% 0.00 in 758 W/m2
10:09 80.2 °F 41.9 °F 30.01 in West 2.8 mph 6 mph 25.7% 0.00 in 766 W/m2
10:14 80.7 °F 41.4 °F 30.01 in WNW 2 mph 2 mph 24.9% 0.00 in 779 W/m2
10:19 81.2 °F 41.2 °F 30.01 in NW 2.8 mph 3 mph 24.3% 0.00 in 793 W/m2
10:24 81.7 °F 41.2 °F 30.01 in NNW 2.1 mph 6 mph 23.8% 0.00 in 800 W/m2
10:29 82.2 °F 42.2 °F 30.01 in NW 4.1 mph 5.2 mph 24.4% 0.00 in 812 W/m2
10:34 82.7 °F 41.1 °F 30.01 in WNW 4.7 mph 9 mph 23% 0.00 in 821 W/m2
10:39 83.1 °F 41.1 °F 30.01 in West 4.4 mph 6 mph 22.6% 0.00 in 835 W/m2
10:44 83.6 °F 41.5 °F 30.01 in SW 2.2 mph 7 mph 22.7% 0.00 in 840 W/m2
10:49 84.1 °F 40.2 °F 30.01 in WNW 2.6 mph 3 mph 21.2% 0.00 in 849 W/m2
10:54 84.5 °F 40.8 °F 30.01 in North 4.2 mph 3 mph 21.4% 0.00 in 861 W/m2
10:59 84.9 °F 40.3 °F 30.01 in WNW 3.4 mph 6 mph 20.8% 0.00 in 870 W/m2
11:04 85.2 °F 40.9 °F 30.01 in West 3.9 mph 6 mph 21% 0.00 in 875 W/m2
11:09 85.6 °F 40.4 °F 30.01 in NW 4 mph 7 mph 20.4% 0.00 in 886 W/m2
11:14 85.9 °F 40.8 °F 30.01 in NW 2.7 mph 3 mph 20.6% 0.00 in 895 W/m2
11:19 86.2 °F 41.2 °F 30.01 in WNW 2.6 mph 6 mph 20.6% 0.00 in 898 W/m2
11:24 86.6 °F 41.5 °F 30.01 in NNE 3 mph 6 mph 20.6% 0.00 in 909 W/m2
11:29 87 °F 40.9 °F 30.01 in NW 3.5 mph 5.7 mph 19.9% 0.00 in 916 W/m2
11:34 87.3 °F 40.2 °F 30.01 in NNE 3.2 mph 7 mph 19.1% 0.00 in 919 W/m2
11:39 87.5 °F 39.5 °F 30.01 in NNW 3.3 mph 6 mph 18.6% 0.00 in 926 W/m2
11:44 87.6 °F 39.9 °F 30.01 in NNW 3.8 mph 7 mph 18.8% 0.00 in 928 W/m2
11:49 87.9 °F 41 °F 30.01 in WNW 6.1 mph 7 mph 19.4% 0.00 in 935 W/m2
11:54 88.2 °F 40.5 °F 30.01 in WNW 6 mph 8.7 mph 18.9% 0.00 in 939 W/m2
11:59 88.4 °F 39.3 °F 30.01 in WNW 8.8 mph 9 mph 17.9% 0.00 in 944 W/m2
12:04 88.6 °F 39.5 °F 30.01 in West 5.6 mph 13 mph 17.9% 0.00 in 949 W/m2
12:09 89.1 °F 40.7 °F 30.00 in ESE 4.6 mph 9 mph 18.4% 0.00 in 953 W/m2
12:14 89.8 °F 41.2 °F 30.01 in SW 3.2 mph 9 mph 18.4% 0.00 in 965 W/m2
12:19 90.3 °F 39.8 °F 30.00 in WNW 4.9 mph 5.1 mph 17.1% 0.00 in 962 W/m2
12:24 90.7 °F 39.9 °F 30.00 in WSW 3.5 mph 7 mph 17% 0.00 in 969 W/m2
12:29 91.1 °F 38.4 °F 30.00 in WNW 2.1 mph 6 mph 15.9% 0.00 in 969 W/m2
12:34 91.6 °F 37.4 °F 30.00 in West 4.3 mph 5.9 mph 15% 0.00 in 969 W/m2
12:39 91.8 °F 38.2 °F 30.00 in West 5.2 mph 9 mph 15.4% 0.00 in 969 W/m2
12:44 92.1 °F 37.5 °F 30.00 in NW 1.9 mph 6 mph 14.9% 0.00 in 969 W/m2
12:49 92.3 °F 38.7 °F 29.99 in NNW 2.3 mph 2 mph 15.4% 0.00 in 972 W/m2
12:54 92.4 °F 38.7 °F 29.99 in NE 3.9 mph 3.5 mph 15.4% 0.00 in 976 W/m2
12:59 92.5 °F 38.5 °F 29.99 in NW 5.7 mph 6.5 mph 15.3% 0.00 in 969 W/m2
13:04 92.5 °F 37.1 °F 29.99 in NW 6.3 mph 13 mph 14.4% 0.00 in 974 W/m2
13:09 92.2 °F 37.2 °F 29.99 in NW 8.2 mph 10 mph 14.6% 0.00 in 974 W/m2
13:14 92.3 °F 37.3 °F 29.99 in North 4.7 mph 9 mph 14.6% 0.00 in 976 W/m2
13:19 92.3 °F 37.3 °F 29.99 in NW 5.9 mph 10 mph 14.6% 0.00 in 972 W/m2
13:24 92.4 °F 37.2 °F 29.99 in WNW 4.5 mph 10 mph 14.6% 0.00 in 967 W/m2
13:29 92.4 °F 37 °F 29.99 in NW 6.9 mph 17 mph 14.4% 0.00 in 965 W/m2
13:34 92.5 °F 37.9 °F 29.98 in NNW 6.2 mph 9 mph 14.9% 0.00 in 963 W/m2
13:39 92.4 °F 37.5 °F 29.98 in NW 6.4 mph 10 mph 14.7% 0.00 in 960 W/m2
13:44 92.6 °F 38.1 °F 29.98 in NNW 2.9 mph 13 mph 15% 0.00 in 960 W/m2
13:49 93 °F 38.9 °F 29.98 in NNE 3.1 mph 7 mph 15.3% 0.00 in 958 W/m2
13:54 93.3 °F 37.4 °F 29.97 in NW 5.7 mph 10 mph 14.3% 0.00 in 954 W/m2
13:59 93.3 °F 35.1 °F 29.98 in NW 4.6 mph 9 mph 13% 0.00 in 953 W/m2
14:04 93.3 °F 35.3 °F 29.98 in NNW 5.1 mph 6 mph 13.1% 0.00 in 946 W/m2
14:09 93.4 °F 37.8 °F 29.98 in NNW 6.4 mph 11.5 mph 14.4% 0.00 in 940 W/m2
14:14 93.7 °F 37.3 °F 29.97 in WNW 7.1 mph 13 mph 14% 0.00 in 933 W/m2
14:19 93.9 °F 36.9 °F 29.97 in WNW 6.8 mph 10 mph 13.7% 0.00 in 925 W/m2
14:24 94 °F 37.1 °F 29.97 in WSW 8.9 mph 10 mph 13.8% 0.00 in 919 W/m2
14:29 94.1 °F 35.4 °F 29.96 in West 2.9 mph 20 mph 12.9% 0.00 in 914 W/m2
14:34 94.4 °F 36.2 °F 29.96 in NW 3.4 mph 3 mph 13.1% 0.00 in 907 W/m2
14:39 94.7 °F 37 °F 29.96 in West 5.9 mph 8.8 mph 13.4% 0.00 in 902 W/m2
14:44 94.9 °F 35.5 °F 29.96 in NNW 6.9 mph 9 mph 12.6% 0.00 in 891 W/m2
14:49 94.7 °F 35.2 °F 29.96 in West 5.9 mph 13 mph 12.5% 0.00 in 888 W/m2
14:54 94.7 °F 35.6 °F 29.96 in WNW 6.6 mph 13 mph 12.7% 0.00 in 882 W/m2
14:59 95 °F 34.4 °F 29.96 in WNW 5 mph 10 mph 12% 0.00 in 874 W/m2
15:04 95.2 °F 35.1 °F 29.96 in WNW 4.2 mph 8.5 mph 12.3% 0.00 in 865 W/m2
15:09 95.5 °F 34 °F 29.96 in NW 6.2 mph 7 mph 11.6% 0.00 in 854 W/m2
15:14 95.7 °F 32.1 °F 29.96 in NW 9.3 mph 10 mph 10.7% 0.00 in 847 W/m2
15:19 95.7 °F 31.5 °F 29.96 in NNW 7.1 mph 13 mph 10.5% 0.00 in 838 W/m2
15:24 95.6 °F 28.9 °F 29.96 in NW 4.6 mph 13 mph 9.4% 0.00 in 830 W/m2
15:29 95.7 °F 29.7 °F 29.96 in West 1.7 mph 7 mph 9.8% 0.00 in 817 W/m2
15:34 96.1 °F 32.8 °F 29.95 in West 2.6 mph 2.8 mph 10.9% 0.00 in 802 W/m2
15:39 96.4 °F 33.6 °F 29.95 in WNW 4.7 mph 6 mph 11.1% 0.00 in 793 W/m2
15:44 96.7 °F 30.8 °F 29.95 in WNW 8.1 mph 10 mph 9.9% 0.00 in 786 W/m2
15:49 96.7 °F 31.9 °F 29.95 in NW 3.1 mph 10 mph 10.3% 0.00 in 775 W/m2
15:54 96.8 °F 29.7 °F 29.94 in NW 2.9 mph 3 mph 9.4% 0.00 in 761 W/m2
15:59 97 °F 31.3 °F 29.94 in WNW 4.1 mph 3.4 mph 10% 0.00 in 751 W/m2
16:04 97.2 °F 33.3 °F 29.94 in NNW 5.6 mph 10 mph 10.8% 0.00 in 740 W/m2
16:09 97.4 °F 32 °F 29.94 in West 4.8 mph 6 mph 10.1% 0.00 in 726 W/m2
16:14 97.6 °F 29.9 °F 29.94 in WNW 3.5 mph 7 mph 9.3% 0.00 in 717 W/m2
16:19 97.7 °F 28.8 °F 29.94 in WNW 3.6 mph 7 mph 8.9% 0.00 in 705 W/m2
16:24 97.7 °F 28.9 °F 29.94 in WSW 3.3 mph 9 mph 8.9% 0.00 in 693 W/m2
El Dorado Weather
Compliments of Weather Underground - 2.5 mb